Impacts TAF Board INFO
FOR SITUATIONAL AWARENESS. NOT TO BE USED FOR FLIGHT PLANNING PURPOSES.
IDs:

KBOS - Boston/Logan Intl, MA, US

Issued at 2022 UTC 19 Jun 2018
Updated at 2159 UTC 19 Jun 2018
Potential Impact None Slight Moderate High
Time<<20/22Z 20/23Z 21/00Z 21/01Z 21/02Z 21/03Z 21/04Z 21/05Z 21/06Z 21/07Z 21/08Z 21/09Z 21/10Z
Type PRVL PRVL
VIS >6 >6
CIG -- --
Cover SCT SCT
FltCat VFR VFR
WX -- --
WDir 220 220
WSpd 10 10
WGst -- --

Raw TAF
KBOS 192022Z 1920/2024 32014G20KT P6SM FEW050
  FM192200 35010KT P6SM SKC
  FM200200 30007KT P6SM FEW250
  FM201200 24006KT P6SM FEW250
  FM201500 22010KT P6SM SCT250


METAR Board
Radar Display
Forecast Discussion

FOR SITUATIONAL AWARENESS. NOT TO BE USED FOR FLIGHT PLANNING PURPOSES.